sensor_id;sensor_type;location;lat;lon;timestamp;P1;durP1;ratioP1;P2;durP2;ratioP2
77814;SDS011;67002;52.124;21.210;2023-04-21T00:02:44;20.20;;;13.30;;
77814;SDS011;67002;52.124;21.210;2023-04-21T00:06:12;22.30;;;12.10;;
77814;SDS011;67002;52.124;21.210;2023-04-21T00:09:29;19.00;;;12.50;;
77814;SDS011;67002;52.124;21.210;2023-04-21T00:13:13;17.80;;;11.40;;
77814;SDS011;67002;52.124;21.210;2023-04-21T00:16:51;20.90;;;12.70;;
77814;SDS011;67002;52.124;21.210;2023-04-21T00:20:48;20.50;;;13.40;;
77814;SDS011;67002;52.124;21.210;2023-04-21T00:24:17;18.40;;;11.70;;
77814;SDS011;67002;52.124;21.210;2023-04-21T00:27:44;21.70;;;11.80;;
77814;SDS011;67002;52.124;21.210;2023-04-21T00:31:22;20.60;;;12.20;;
77814;SDS011;67002;52.124;21.210;2023-04-21T00:35:22;20.90;;;11.70;;
77814;SDS011;67002;52.124;21.210;2023-04-21T00:38:47;24.60;;;13.20;;
77814;SDS011;67002;52.124;21.210;2023-04-21T00:42:15;23.00;;;12.60;;
77814;SDS011;67002;52.124;21.210;2023-04-21T00:46:03;26.40;;;12.20;;
77814;SDS011;67002;52.124;21.210;2023-04-21T00:49:49;23.40;;;13.00;;
77814;SDS011;67002;52.124;21.210;2023-04-21T00:53:06;22.50;;;13.20;;
77814;SDS011;67002;52.124;21.210;2023-04-21T00:56:52;25.90;;;12.90;;
77814;SDS011;67002;52.124;21.210;2023-04-21T01:00:29;21.00;;;11.60;;
77814;SDS011;67002;52.124;21.210;2023-04-21T01:04:26;19.90;;;11.00;;
77814;SDS011;67002;52.124;21.210;2023-04-21T01:07:52;20.00;;;12.20;;
77814;SDS011;67002;52.124;21.210;2023-04-21T01:11:25;20.40;;;12.80;;
77814;SDS011;67002;52.124;21.210;2023-04-21T01:14:58;18.50;;;10.90;;
77814;SDS011;67002;52.124;21.210;2023-04-21T01:18:44;24.80;;;12.80;;
77814;SDS011;67002;52.124;21.210;2023-04-21T01:22:22;20.80;;;12.90;;
77814;SDS011;67002;52.124;21.210;2023-04-21T01:25:59;15.20;;;10.60;;
77814;SDS011;67002;52.124;21.210;2023-04-21T01:30:04;17.80;;;10.30;;
77814;SDS011;67002;52.124;21.210;2023-04-21T01:33:40;22.10;;;11.40;;
77814;SDS011;67002;52.124;21.210;2023-04-21T01:37:18;19.10;;;10.00;;
77814;SDS011;67002;52.124;21.210;2023-04-21T01:40:59;22.10;;;13.30;;
77814;SDS011;67002;52.124;21.210;2023-04-21T01:44:33;20.70;;;12.30;;
77814;SDS011;67002;52.124;21.210;2023-04-21T01:48:21;21.90;;;12.70;;
77814;SDS011;67002;52.124;21.210;2023-04-21T01:51:33;22.00;;;14.00;;
77814;SDS011;67002;52.124;21.210;2023-04-21T01:55:09;19.70;;;12.70;;
77814;SDS011;67002;52.124;21.210;2023-04-21T01:58:44;22.90;;;13.50;;
77814;SDS011;67002;52.124;21.210;2023-04-21T02:02:27;16.40;;;10.00;;
77814;SDS011;67002;52.124;21.210;2023-04-21T02:06:12;24.00;;;12.30;;
77814;SDS011;67002;52.124;21.210;2023-04-21T02:09:53;21.10;;;12.50;;
77814;SDS011;67002;52.124;21.210;2023-04-21T02:13:35;22.10;;;12.00;;
77814;SDS011;67002;52.124;21.210;2023-04-21T02:17:05;24.30;;;13.50;;
77814;SDS011;67002;52.124;21.210;2023-04-21T02:20:49;23.40;;;11.70;;
77814;SDS011;67002;52.124;21.210;2023-04-21T02:24:25;24.80;;;12.80;;
77814;SDS011;67002;52.124;21.210;2023-04-21T02:28:10;24.40;;;13.50;;
77814;SDS011;67002;52.124;21.210;2023-04-21T02:31:49;24.30;;;13.70;;
77814;SDS011;67002;52.124;21.210;2023-04-21T02:35:45;21.20;;;13.70;;
77814;SDS011;67002;52.124;21.210;2023-04-21T02:39:07;18.50;;;11.60;;
77814;SDS011;67002;52.124;21.210;2023-04-21T02:42:40;20.70;;;10.90;;
77814;SDS011;67002;52.124;21.210;2023-04-21T02:46:26;19.80;;;12.80;;
77814;SDS011;67002;52.124;21.210;2023-04-21T02:50:03;20.30;;;13.10;;
77814;SDS011;67002;52.124;21.210;2023-04-21T02:53:41;21.30;;;12.30;;
77814;SDS011;67002;52.124;21.210;2023-04-21T02:57:37;21.50;;;12.70;;
77814;SDS011;67002;52.124;21.210;2023-04-21T03:01:15;22.60;;;13.40;;
77814;SDS011;67002;52.124;21.210;2023-04-21T03:04:35;20.50;;;12.40;;
77814;SDS011;67002;52.124;21.210;2023-04-21T03:08:12;23.60;;;12.90;;
77814;SDS011;67002;52.124;21.210;2023-04-21T03:11:50;21.80;;;11.90;;
77814;SDS011;67002;52.124;21.210;2023-04-21T03:15:37;22.00;;;11.70;;
77814;SDS011;67002;52.124;21.210;2023-04-21T03:19:06;22.80;;;12.20;;
77814;SDS011;67002;52.124;21.210;2023-04-21T03:22:40;22.00;;;13.10;;
77814;SDS011;67002;52.124;21.210;2023-04-21T03:26:25;22.00;;;12.00;;
77814;SDS011;67002;52.124;21.210;2023-04-21T03:30:26;23.40;;;12.40;;
77814;SDS011;67002;52.124;21.210;2023-04-21T03:34:06;24.00;;;13.40;;
77814;SDS011;67002;52.124;21.210;2023-04-21T03:37:23;23.90;;;12.90;;
77814;SDS011;67002;52.124;21.210;2023-04-21T03:41:26;19.00;;;11.50;;
77814;SDS011;67002;52.124;21.210;2023-04-21T03:44:45;21.50;;;11.70;;
77814;SDS011;67002;52.124;21.210;2023-04-21T03:48:23;20.40;;;13.80;;
77814;SDS011;67002;52.124;21.210;2023-04-21T03:52:10;20.60;;;12.60;;
77814;SDS011;67002;52.124;21.210;2023-04-21T03:56:01;20.00;;;13.00;;
77814;SDS011;67002;52.124;21.210;2023-04-21T03:59:35;20.50;;;12.90;;
77814;SDS011;67002;52.124;21.210;2023-04-21T04:02:53;21.80;;;12.60;;
77814;SDS011;67002;52.124;21.210;2023-04-21T04:06:37;18.90;;;11.80;;
77814;SDS011;67002;52.124;21.210;2023-04-21T04:10:15;21.70;;;12.70;;
77814;SDS011;67002;52.124;21.210;2023-04-21T04:14:03;20.20;;;11.90;;
77814;SDS011;67002;52.124;21.210;2023-04-21T04:17:41;22.00;;;11.00;;
77814;SDS011;67002;52.124;21.210;2023-04-21T04:21:07;21.40;;;12.20;;
77814;SDS011;67002;52.124;21.210;2023-04-21T04:25:02;24.40;;;11.50;;
77814;SDS011;67002;52.124;21.210;2023-04-21T04:28:38;20.30;;;11.60;;
77814;SDS011;67002;52.124;21.210;2023-04-21T04:32:08;23.00;;;12.50;;
77814;SDS011;67002;52.124;21.210;2023-04-21T04:36:12;17.90;;;11.40;;
77814;SDS011;67002;52.124;21.210;2023-04-21T04:39:43;18.50;;;10.40;;
77814;SDS011;67002;52.124;21.210;2023-04-21T04:43:02;11.00;;;7.40;;
77814;SDS011;67002;52.124;21.210;2023-04-21T04:46:37;19.00;;;10.30;;
77814;SDS011;67002;52.124;21.210;2023-04-21T04:50:31;17.10;;;9.30;;
77814;SDS011;67002;52.124;21.210;2023-04-21T04:54:09;24.40;;;11.20;;
77814;SDS011;67002;52.124;21.210;2023-04-21T04:57:38;16.80;;;9.40;;
77814;SDS011;67002;52.124;21.210;2023-04-21T05:01:15;16.10;;;9.30;;
77814;SDS011;67002;52.124;21.210;2023-04-21T05:05:02;15.00;;;9.00;;
77814;SDS011;67002;52.124;21.210;2023-04-21T05:08:30;16.00;;;8.70;;
77814;SDS011;67002;52.124;21.210;2023-04-21T05:12:09;14.70;;;9.10;;
77814;SDS011;67002;52.124;21.210;2023-04-21T05:15:44;15.00;;;9.00;;
77814;SDS011;67002;52.124;21.210;2023-04-21T05:19:30;11.20;;;6.50;;
77814;SDS011;67002;52.124;21.210;2023-04-21T05:23:26;15.60;;;8.30;;
77814;SDS011;67002;52.124;21.210;2023-04-21T05:26:54;15.60;;;8.60;;
77814;SDS011;67002;52.124;21.210;2023-04-21T05:30:23;12.40;;;7.20;;
77814;SDS011;67002;52.124;21.210;2023-04-21T05:34:01;14.30;;;7.60;;
77814;SDS011;67002;52.124;21.210;2023-04-21T05:37:39;15.50;;;9.40;;
77814;SDS011;67002;52.124;21.210;2023-04-21T05:41:25;11.40;;;7.60;;
77814;SDS011;67002;52.124;21.210;2023-04-21T05:44:53;15.30;;;7.80;;
77814;SDS011;67002;52.124;21.210;2023-04-21T05:48:50;9.30;;;5.80;;
77814;SDS011;67002;52.124;21.210;2023-04-21T05:52:26;10.90;;;6.40;;
77814;SDS011;67002;52.124;21.210;2023-04-21T05:55:46;12.30;;;6.40;;
77814;SDS011;67002;52.124;21.210;2023-04-21T05:59:44;14.40;;;7.90;;
77814;SDS011;67002;52.124;21.210;2023-04-21T06:03:03;15.40;;;7.50;;
77814;SDS011;67002;52.124;21.210;2023-04-21T06:06:37;13.10;;;7.00;;
77814;SDS011;67002;52.124;21.210;2023-04-21T06:10:24;12.40;;;7.90;;
77814;SDS011;67002;52.124;21.210;2023-04-21T06:14:10;12.20;;;5.90;;
77814;SDS011;67002;52.124;21.210;2023-04-21T06:17:41;12.00;;;7.30;;
77814;SDS011;67002;52.124;21.210;2023-04-21T06:21:15;13.40;;;7.40;;
77814;SDS011;67002;52.124;21.210;2023-04-21T06:24:56;13.50;;;7.90;;
77814;SDS011;67002;52.124;21.210;2023-04-21T06:28:40;13.10;;;6.80;;
77814;SDS011;67002;52.124;21.210;2023-04-21T06:32:37;11.60;;;6.70;;
77814;SDS011;67002;52.124;21.210;2023-04-21T06:36:05;15.90;;;7.70;;
77814;SDS011;67002;52.124;21.210;2023-04-21T06:39:22;9.60;;;6.60;;
77814;SDS011;67002;52.124;21.210;2023-04-21T06:43:07;10.30;;;6.30;;
77814;SDS011;67002;52.124;21.210;2023-04-21T06:46:54;9.50;;;6.00;;
77814;SDS011;67002;52.124;21.210;2023-04-21T06:50:41;9.50;;;6.60;;
77814;SDS011;67002;52.124;21.210;2023-04-21T06:54:03;9.10;;;5.70;;
77814;SDS011;67002;52.124;21.210;2023-04-21T06:57:54;8.00;;;6.50;;
77814;SDS011;67002;52.124;21.210;2023-04-21T07:01:35;8.60;;;5.70;;
77814;SDS011;67002;52.124;21.210;2023-04-21T07:05:12;12.30;;;5.80;;
77814;SDS011;67002;52.124;21.210;2023-04-21T07:08:29;8.80;;;5.20;;
77814;SDS011;67002;52.124;21.210;2023-04-21T07:12:32;10.90;;;5.60;;
77814;SDS011;67002;52.124;21.210;2023-04-21T07:16:11;10.10;;;5.20;;
77814;SDS011;67002;52.124;21.210;2023-04-21T07:19:49;9.10;;;5.60;;
77814;SDS011;67002;52.124;21.210;2023-04-21T07:23:05;11.50;;;5.90;;
77814;SDS011;67002;52.124;21.210;2023-04-21T07:27:09;7.50;;;5.50;;
77814;SDS011;67002;52.124;21.210;2023-04-21T07:30:27;11.30;;;5.00;;
77814;SDS011;67002;52.124;21.210;2023-04-21T07:34:05;7.10;;;4.20;;
77814;SDS011;67002;52.124;21.210;2023-04-21T07:38:01;7.30;;;5.40;;
77814;SDS011;67002;52.124;21.210;2023-04-21T07:41:20;7.50;;;5.40;;
77814;SDS011;67002;52.124;21.210;2023-04-21T07:44:59;6.10;;;4.50;;
77814;SDS011;67002;52.124;21.210;2023-04-21T07:48:36;9.60;;;5.80;;
77814;SDS011;67002;52.124;21.210;2023-04-21T07:52:14;6.90;;;4.70;;
77814;SDS011;67002;52.124;21.210;2023-04-21T07:55:51;8.00;;;4.80;;
77814;SDS011;67002;52.124;21.210;2023-04-21T07:59:29;8.80;;;3.90;;
77814;SDS011;67002;52.124;21.210;2023-04-21T08:03:16;7.30;;;4.20;;
77814;SDS011;67002;52.124;21.210;2023-04-21T08:06:44;9.30;;;4.70;;
77814;SDS011;67002;52.124;21.210;2023-04-21T08:10:42;8.50;;;5.20;;
77814;SDS011;67002;52.124;21.210;2023-04-21T08:14:18;7.00;;;4.90;;
77814;SDS011;67002;52.124;21.210;2023-04-21T08:17:45;6.90;;;5.30;;
77814;SDS011;67002;52.124;21.210;2023-04-21T08:21:18;10.40;;;5.30;;
77814;SDS011;67002;52.124;21.210;2023-04-21T08:24:54;9.70;;;5.80;;
77814;SDS011;67002;52.124;21.210;2023-04-21T08:28:50;7.60;;;4.80;;
77814;SDS011;67002;52.124;21.210;2023-04-21T08:32:09;8.20;;;4.60;;
77814;SDS011;67002;52.124;21.210;2023-04-21T08:35:44;8.20;;;4.70;;
77814;SDS011;67002;52.124;21.210;2023-04-21T08:39:52;9.40;;;4.40;;
77814;SDS011;67002;52.124;21.210;2023-04-21T08:43:40;8.00;;;5.10;;
77814;SDS011;67002;52.124;21.210;2023-04-21T08:47:00;10.90;;;5.10;;
77814;SDS011;67002;52.124;21.210;2023-04-21T08:50:57;8.90;;;4.70;;
77814;SDS011;67002;52.124;21.210;2023-04-21T08:54:16;6.20;;;4.50;;
77814;SDS011;67002;52.124;21.210;2023-04-21T08:57:53;7.00;;;4.90;;
77814;SDS011;67002;52.124;21.210;2023-04-21T09:01:29;6.80;;;4.70;;
77814;SDS011;67002;52.124;21.210;2023-04-21T09:05:15;7.20;;;3.70;;
77814;SDS011;67002;52.124;21.210;2023-04-21T09:09:20;12.60;;;5.40;;
77814;SDS011;67002;52.124;21.210;2023-04-21T09:12:39;7.20;;;4.90;;
77814;SDS011;67002;52.124;21.210;2023-04-21T09:16:30;8.30;;;4.10;;
77814;SDS011;67002;52.124;21.210;2023-04-21T09:20:13;11.50;;;4.90;;
77814;SDS011;67002;52.124;21.210;2023-04-21T09:23:22;8.60;;;4.30;;
77814;SDS011;67002;52.124;21.210;2023-04-21T09:27:19;8.40;;;4.90;;
77814;SDS011;67002;52.124;21.210;2023-04-21T09:31:00;7.40;;;5.00;;
77814;SDS011;67002;52.124;21.210;2023-04-21T09:34:18;8.30;;;4.80;;
77814;SDS011;67002;52.124;21.210;2023-04-21T09:38:08;8.10;;;4.70;;
77814;SDS011;67002;52.124;21.210;2023-04-21T09:42:13;8.00;;;4.40;;
77814;SDS011;67002;52.124;21.210;2023-04-21T09:45:51;8.10;;;5.40;;
77814;SDS011;67002;52.124;21.210;2023-04-21T09:49:08;7.00;;;4.80;;
77814;SDS011;67002;52.124;21.210;2023-04-21T09:53:13;8.90;;;4.80;;
77814;SDS011;67002;52.124;21.210;2023-04-21T09:56:41;6.90;;;5.10;;
77814;SDS011;67002;52.124;21.210;2023-04-21T10:00:13;8.10;;;4.80;;
77814;SDS011;67002;52.124;21.210;2023-04-21T10:03:56;5.90;;;4.00;;
77814;SDS011;67002;52.124;21.210;2023-04-21T10:07:34;9.10;;;5.20;;
77814;SDS011;67002;52.124;21.210;2023-04-21T10:11:12;10.50;;;4.80;;
77814;SDS011;67002;52.124;21.210;2023-04-21T10:14:39;6.30;;;3.70;;
77814;SDS011;67002;52.124;21.210;2023-04-21T10:18:35;9.40;;;4.30;;
77814;SDS011;67002;52.124;21.210;2023-04-21T10:22:25;7.70;;;4.90;;
77814;SDS011;67002;52.124;21.210;2023-04-21T10:26:02;10.10;;;5.30;;
77814;SDS011;67002;52.124;21.210;2023-04-21T10:29:43;9.80;;;4.90;;
77814;SDS011;67002;52.124;21.210;2023-04-21T10:33:17;9.80;;;4.80;;
77814;SDS011;67002;52.124;21.210;2023-04-21T10:36:32;9.60;;;5.10;;
77814;SDS011;67002;52.124;21.210;2023-04-21T10:40:32;8.50;;;4.50;;
77814;SDS011;67002;52.124;21.210;2023-04-21T10:44:16;8.80;;;5.30;;
77814;SDS011;67002;52.124;21.210;2023-04-21T10:47:26;8.70;;;5.10;;
77814;SDS011;67002;52.124;21.210;2023-04-21T10:51:13;6.70;;;4.50;;
77814;SDS011;67002;52.124;21.210;2023-04-21T10:55:04;6.10;;;4.70;;
77814;SDS011;67002;52.124;21.210;2023-04-21T10:58:19;6.50;;;4.50;;
77814;SDS011;67002;52.124;21.210;2023-04-21T11:02:16;13.10;;;5.60;;
77814;SDS011;67002;52.124;21.210;2023-04-21T11:05:44;8.30;;;4.90;;
77814;SDS011;67002;52.124;21.210;2023-04-21T11:09:29;7.30;;;4.50;;
77814;SDS011;67002;52.124;21.210;2023-04-21T11:13:10;10.10;;;5.90;;
77814;SDS011;67002;52.124;21.210;2023-04-21T11:16:27;9.00;;;4.90;;
77814;SDS011;67002;52.124;21.210;2023-04-21T11:20:03;7.10;;;4.30;;
77814;SDS011;67002;52.124;21.210;2023-04-21T11:24:09;13.00;;;5.10;;
77814;SDS011;67002;52.124;21.210;2023-04-21T11:27:37;6.90;;;4.70;;
77814;SDS011;67002;52.124;21.210;2023-04-21T11:31:27;6.80;;;5.00;;
77814;SDS011;67002;52.124;21.210;2023-04-21T11:35:05;9.70;;;4.30;;
77814;SDS011;67002;52.124;21.210;2023-04-21T11:38:24;9.20;;;5.10;;
77814;SDS011;67002;52.124;21.210;2023-04-21T11:42:20;8.90;;;5.00;;
77814;SDS011;67002;52.124;21.210;2023-04-21T11:45:43;4.90;;;3.40;;
77814;SDS011;67002;52.124;21.210;2023-04-21T11:49:32;7.70;;;4.60;;
77814;SDS011;67002;52.124;21.210;2023-04-21T11:52:52;8.20;;;4.40;;
77814;SDS011;67002;52.124;21.210;2023-04-21T11:56:26;9.70;;;4.60;;
77814;SDS011;67002;52.124;21.210;2023-04-21T12:00:30;6.70;;;4.40;;
77814;SDS011;67002;52.124;21.210;2023-04-21T12:04:12;11.20;;;5.30;;
77814;SDS011;67002;52.124;21.210;2023-04-21T12:07:27;10.30;;;5.40;;
77814;SDS011;67002;52.124;21.210;2023-04-21T12:11:05;7.90;;;5.90;;
77814;SDS011;67002;52.124;21.210;2023-04-21T12:14:40;7.30;;;5.10;;
77814;SDS011;67002;52.124;21.210;2023-04-21T12:18:47;9.90;;;4.90;;
77814;SDS011;67002;52.124;21.210;2023-04-21T12:22:32;7.10;;;5.20;;
77814;SDS011;67002;52.124;21.210;2023-04-21T12:25:51;9.60;;;4.70;;
77814;SDS011;67002;52.124;21.210;2023-04-21T12:29:20;8.90;;;4.10;;
77814;SDS011;67002;52.124;21.210;2023-04-21T12:33:17;9.00;;;4.90;;
77814;SDS011;67002;52.124;21.210;2023-04-21T12:36:36;5.40;;;3.30;;
77814;SDS011;67002;52.124;21.210;2023-04-21T12:40:33;8.90;;;4.70;;
77814;SDS011;67002;52.124;21.210;2023-04-21T12:43:50;5.40;;;3.90;;
77814;SDS011;67002;52.124;21.210;2023-04-21T12:47:52;7.30;;;5.10;;
77814;SDS011;67002;52.124;21.210;2023-04-21T12:51:13;8.70;;;5.90;;
77814;SDS011;67002;52.124;21.210;2023-04-21T12:55:10;9.90;;;5.70;;
77814;SDS011;67002;52.124;21.210;2023-04-21T12:58:27;9.50;;;5.10;;
77814;SDS011;67002;52.124;21.210;2023-04-21T13:02:13;8.60;;;5.30;;
77814;SDS011;67002;52.124;21.210;2023-04-21T13:05:49;11.10;;;5.80;;
77814;SDS011;67002;52.124;21.210;2023-04-21T13:09:47;7.80;;;4.80;;
77814;SDS011;67002;52.124;21.210;2023-04-21T13:13:22;12.80;;;8.20;;
77814;SDS011;67002;52.124;21.210;2023-04-21T13:16:43;24.60;;;12.60;;
77814;SDS011;67002;52.124;21.210;2023-04-21T13:20:25;7.90;;;4.80;;
77814;SDS011;67002;52.124;21.210;2023-04-21T13:24:39;10.90;;;4.90;;
77814;SDS011;67002;52.124;21.210;2023-04-21T13:28:05;9.30;;;5.60;;
77814;SDS011;67002;52.124;21.210;2023-04-21T13:31:23;11.50;;;4.90;;
77814;SDS011;67002;52.124;21.210;2023-04-21T13:35:09;19.00;;;9.00;;
77814;SDS011;67002;52.124;21.210;2023-04-21T13:38:46;8.00;;;5.80;;
77814;SDS011;67002;52.124;21.210;2023-04-21T13:42:24;7.20;;;4.10;;
77814;SDS011;67002;52.124;21.210;2023-04-21T13:46:11;7.90;;;4.80;;
77814;SDS011;67002;52.124;21.210;2023-04-21T13:49:37;8.90;;;5.30;;
77814;SDS011;67002;52.124;21.210;2023-04-21T13:53:22;11.80;;;4.30;;
77814;SDS011;67002;52.124;21.210;2023-04-21T13:57:29;7.30;;;4.80;;
77814;SDS011;67002;52.124;21.210;2023-04-21T14:00:54;13.00;;;4.80;;
77814;SDS011;67002;52.124;21.210;2023-04-21T14:04:33;7.70;;;4.90;;
77814;SDS011;67002;52.124;21.210;2023-04-21T14:07:53;8.60;;;4.70;;
77814;SDS011;67002;52.124;21.210;2023-04-21T14:11:54;7.80;;;4.90;;
77814;SDS011;67002;52.124;21.210;2023-04-21T14:15:27;11.30;;;4.90;;
77814;SDS011;67002;52.124;21.210;2023-04-21T14:19:08;9.10;;;4.70;;
77814;SDS011;67002;52.124;21.210;2023-04-21T14:22:24;8.80;;;5.30;;
77814;SDS011;67002;52.124;21.210;2023-04-21T14:26:01;9.80;;;5.40;;
77814;SDS011;67002;52.124;21.210;2023-04-21T14:29:59;10.00;;;6.10;;
77814;SDS011;67002;52.124;21.210;2023-04-21T14:33:37;9.40;;;4.30;;
77814;SDS011;67002;52.124;21.210;2023-04-21T14:37:12;13.80;;;5.50;;
77814;SDS011;67002;52.124;21.210;2023-04-21T14:40:33;10.20;;;4.90;;
77814;SDS011;67002;52.124;21.210;2023-04-21T14:44:08;7.80;;;4.70;;
77814;SDS011;67002;52.124;21.210;2023-04-21T14:48:09;5.60;;;4.00;;
77814;SDS011;67002;52.124;21.210;2023-04-21T14:51:34;8.10;;;5.10;;
77814;SDS011;67002;52.124;21.210;2023-04-21T14:55:06;11.00;;;6.00;;
77814;SDS011;67002;52.124;21.210;2023-04-21T14:58:50;10.20;;;4.50;;
77814;SDS011;67002;52.124;21.210;2023-04-21T15:02:53;11.70;;;5.60;;
77814;SDS011;67002;52.124;21.210;2023-04-21T15:06:12;6.60;;;4.50;;
77814;SDS011;67002;52.124;21.210;2023-04-21T15:09:58;10.80;;;5.40;;
77814;SDS011;67002;52.124;21.210;2023-04-21T15:13:44;8.80;;;5.10;;
77814;SDS011;67002;52.124;21.210;2023-04-21T15:17:24;7.70;;;4.80;;
77814;SDS011;67002;52.124;21.210;2023-04-21T15:21:12;9.80;;;5.10;;
77814;SDS011;67002;52.124;21.210;2023-04-21T15:24:22;12.20;;;5.40;;
77814;SDS011;67002;52.124;21.210;2023-04-21T15:28:15;9.40;;;4.70;;
77814;SDS011;67002;52.124;21.210;2023-04-21T15:31:37;8.30;;;5.30;;
77814;SDS011;67002;52.124;21.210;2023-04-21T15:35:43;10.20;;;4.40;;
77814;SDS011;67002;52.124;21.210;2023-04-21T15:39:11;10.30;;;5.40;;
77814;SDS011;67002;52.124;21.210;2023-04-21T15:42:58;11.40;;;5.30;;
77814;SDS011;67002;52.124;21.210;2023-04-21T15:46:36;10.00;;;5.00;;
77814;SDS011;67002;52.124;21.210;2023-04-21T15:49:46;23.70;;;7.90;;
77814;SDS011;67002;52.124;21.210;2023-04-21T15:53:39;8.90;;;5.00;;
77814;SDS011;67002;52.124;21.210;2023-04-21T15:57:00;9.60;;;4.70;;
77814;SDS011;67002;52.124;21.210;2023-04-21T16:00:39;12.20;;;6.10;;
77814;SDS011;67002;52.124;21.210;2023-04-21T16:04:16;9.20;;;4.60;;
77814;SDS011;67002;52.124;21.210;2023-04-21T16:07:52;14.90;;;5.30;;
77814;SDS011;67002;52.124;21.210;2023-04-21T16:11:37;12.90;;;5.50;;
77814;SDS011;67002;52.124;21.210;2023-04-21T16:15:15;11.00;;;4.80;;
77814;SDS011;67002;52.124;21.210;2023-04-21T16:18:53;11.40;;;5.40;;
77814;SDS011;67002;52.124;21.210;2023-04-21T16:22:53;10.30;;;6.20;;
77814;SDS011;67002;52.124;21.210;2023-04-21T16:26:08;9.40;;;5.50;;
77814;SDS011;67002;52.124;21.210;2023-04-21T16:29:46;11.90;;;5.50;;
77814;SDS011;67002;52.124;21.210;2023-04-21T16:33:42;10.10;;;5.10;;
77814;SDS011;67002;52.124;21.210;2023-04-21T16:37:21;10.80;;;5.50;;
77814;SDS011;67002;52.124;21.210;2023-04-21T16:40:58;15.00;;;5.80;;
77814;SDS011;67002;52.124;21.210;2023-04-21T16:44:45;14.20;;;5.60;;
77814;SDS011;67002;52.124;21.210;2023-04-21T16:47:52;10.90;;;5.80;;
77814;SDS011;67002;52.124;21.210;2023-04-21T16:51:55;13.20;;;6.80;;
77814;SDS011;67002;52.124;21.210;2023-04-21T16:55:15;11.00;;;6.10;;
77814;SDS011;67002;52.124;21.210;2023-04-21T16:59:18;10.30;;;6.50;;
77814;SDS011;67002;52.124;21.210;2023-04-21T17:02:56;10.80;;;6.40;;
77814;SDS011;67002;52.124;21.210;2023-04-21T17:06:34;13.90;;;7.70;;
77814;SDS011;67002;52.124;21.210;2023-04-21T17:10:12;15.20;;;6.70;;
77814;SDS011;67002;52.124;21.210;2023-04-21T17:13:30;35.50;;;18.30;;
77814;SDS011;67002;52.124;21.210;2023-04-21T17:17:08;34.80;;;16.80;;
77814;SDS011;67002;52.124;21.210;2023-04-21T17:20:44;23.50;;;11.20;;
77814;SDS011;67002;52.124;21.210;2023-04-21T17:24:48;21.20;;;8.30;;
77814;SDS011;67002;52.124;21.210;2023-04-21T17:28:06;22.70;;;8.20;;
77814;SDS011;67002;52.124;21.210;2023-04-21T17:31:44;17.70;;;7.80;;
77814;SDS011;67002;52.124;21.210;2023-04-21T17:35:30;19.10;;;8.40;;
77814;SDS011;67002;52.124;21.210;2023-04-21T17:38:57;20.00;;;8.20;;
77814;SDS011;67002;52.124;21.210;2023-04-21T17:42:40;15.30;;;8.30;;
77814;SDS011;67002;52.124;21.210;2023-04-21T17:46:24;25.70;;;11.10;;
77814;SDS011;67002;52.124;21.210;2023-04-21T17:50:00;29.10;;;9.30;;
77814;SDS011;67002;52.124;21.210;2023-04-21T17:53:43;21.60;;;8.20;;
77814;SDS011;67002;52.124;21.210;2023-04-21T17:57:47;14.60;;;7.80;;
77814;SDS011;67002;52.124;21.210;2023-04-21T18:01:16;20.80;;;8.50;;
77814;SDS011;67002;52.124;21.210;2023-04-21T18:05:03;19.00;;;8.70;;
77814;SDS011;67002;52.124;21.210;2023-04-21T18:08:31;22.10;;;8.70;;
77814;SDS011;67002;52.124;21.210;2023-04-21T18:12:00;21.10;;;9.10;;
77814;SDS011;67002;52.124;21.210;2023-04-21T18:15:37;22.70;;;9.00;;
77814;SDS011;67002;52.124;21.210;2023-04-21T18:19:12;20.90;;;9.20;;
77814;SDS011;67002;52.124;21.210;2023-04-21T18:22:56;24.40;;;9.00;;
77814;SDS011;67002;52.124;21.210;2023-04-21T18:26:39;23.40;;;9.10;;
77814;SDS011;67002;52.124;21.210;2023-04-21T18:30:34;28.10;;;10.50;;
77814;SDS011;67002;52.124;21.210;2023-04-21T18:34:00;27.00;;;10.90;;
77814;SDS011;67002;52.124;21.210;2023-04-21T18:37:42;22.60;;;9.90;;
77814;SDS011;67002;52.124;21.210;2023-04-21T18:41:54;21.60;;;9.70;;
77814;SDS011;67002;52.124;21.210;2023-04-21T18:45:13;23.80;;;10.50;;
77814;SDS011;67002;52.124;21.210;2023-04-21T18:49:00;25.80;;;13.60;;
77814;SDS011;67002;52.124;21.210;2023-04-21T18:52:21;24.90;;;10.80;;
77814;SDS011;67002;52.124;21.210;2023-04-21T18:56:17;27.20;;;11.50;;
77814;SDS011;67002;52.124;21.210;2023-04-21T18:59:39;26.50;;;11.30;;
77814;SDS011;67002;52.124;21.210;2023-04-21T19:03:30;29.50;;;11.90;;
77814;SDS011;67002;52.124;21.210;2023-04-21T19:06:49;22.10;;;11.50;;
77814;SDS011;67002;52.124;21.210;2023-04-21T19:10:32;29.60;;;12.60;;
77814;SDS011;67002;52.124;21.210;2023-04-21T19:14:45;37.70;;;14.70;;
77814;SDS011;67002;52.124;21.210;2023-04-21T19:18:14;32.30;;;13.30;;
77814;SDS011;67002;52.124;21.210;2023-04-21T19:21:44;39.10;;;12.80;;
77814;SDS011;67002;52.124;21.210;2023-04-21T19:25:12;38.20;;;15.20;;
77814;SDS011;67002;52.124;21.210;2023-04-21T19:29:18;39.80;;;17.00;;
77814;SDS011;67002;52.124;21.210;2023-04-21T19:32:28;42.90;;;18.70;;
77814;SDS011;67002;52.124;21.210;2023-04-21T19:36:03;49.30;;;19.70;;
77814;SDS011;67002;52.124;21.210;2023-04-21T19:40:07;46.50;;;19.30;;
77814;SDS011;67002;52.124;21.210;2023-04-21T19:43:24;44.80;;;18.60;;
77814;SDS011;67002;52.124;21.210;2023-04-21T19:47:38;46.50;;;21.10;;
77814;SDS011;67002;52.124;21.210;2023-04-21T19:50:45;43.10;;;17.60;;
77814;SDS011;67002;52.124;21.210;2023-04-21T19:54:28;47.50;;;20.10;;
77814;SDS011;67002;52.124;21.210;2023-04-21T19:58:10;42.00;;;18.30;;
77814;SDS011;67002;52.124;21.210;2023-04-21T20:02:09;50.30;;;19.50;;
77814;SDS011;67002;52.124;21.210;2023-04-21T20:05:48;44.30;;;19.50;;
77814;SDS011;67002;52.124;21.210;2023-04-21T20:09:24;50.60;;;21.00;;
77814;SDS011;67002;52.124;21.210;2023-04-21T20:13:00;41.40;;;19.20;;
77814;SDS011;67002;52.124;21.210;2023-04-21T20:17:11;51.50;;;24.70;;
77814;SDS011;67002;52.124;21.210;2023-04-21T20:20:32;60.30;;;24.20;;
77814;SDS011;67002;52.124;21.210;2023-04-21T20:24:29;70.80;;;28.90;;
77814;SDS011;67002;52.124;21.210;2023-04-21T20:27:37;61.60;;;26.30;;
77814;SDS011;67002;52.124;21.210;2023-04-21T20:31:19;73.20;;;29.60;;
77814;SDS011;67002;52.124;21.210;2023-04-21T20:34:51;65.30;;;26.30;;
77814;SDS011;67002;52.124;21.210;2023-04-21T20:38:38;67.70;;;25.90;;
77814;SDS011;67002;52.124;21.210;2023-04-21T20:42:23;71.40;;;31.90;;
77814;SDS011;67002;52.124;21.210;2023-04-21T20:46:20;75.00;;;31.30;;
77814;SDS011;67002;52.124;21.210;2023-04-21T20:49:56;72.90;;;33.30;;
77814;SDS011;67002;52.124;21.210;2023-04-21T20:53:16;80.70;;;33.80;;
77814;SDS011;67002;52.124;21.210;2023-04-21T20:57:20;74.70;;;33.00;;
77814;SDS011;67002;52.124;21.210;2023-04-21T21:00:41;78.20;;;32.60;;
77814;SDS011;67002;52.124;21.210;2023-04-21T21:04:09;76.60;;;31.30;;
77814;SDS011;67002;52.124;21.210;2023-04-21T21:08:07;76.80;;;34.50;;
77814;SDS011;67002;52.124;21.210;2023-04-21T21:11:24;81.40;;;33.30;;
77814;SDS011;67002;52.124;21.210;2023-04-21T21:15:25;78.30;;;32.60;;
77814;SDS011;67002;52.124;21.210;2023-04-21T21:18:40;72.40;;;33.30;;